sensor_id;sensor_type;location;lat;lon;timestamp;P1;durP1;ratioP1;P2;durP2;ratioP2
5616;SDS011;2830;50.656;7.568;2023-01-29T00:01:54;26.52;;;13.90;;
5616;SDS011;2830;50.656;7.568;2023-01-29T00:04:23;26.15;;;13.45;;
5616;SDS011;2830;50.656;7.568;2023-01-29T00:06:50;24.05;;;13.98;;
5616;SDS011;2830;50.656;7.568;2023-01-29T00:09:17;24.80;;;13.65;;
5616;SDS011;2830;50.656;7.568;2023-01-29T00:11:44;26.85;;;15.05;;
5616;SDS011;2830;50.656;7.568;2023-01-29T00:14:13;21.65;;;11.80;;
5616;SDS011;2830;50.656;7.568;2023-01-29T00:16:40;26.48;;;13.88;;
5616;SDS011;2830;50.656;7.568;2023-01-29T00:19:07;23.67;;;12.10;;
5616;SDS011;2830;50.656;7.568;2023-01-29T00:21:34;22.10;;;12.05;;
5616;SDS011;2830;50.656;7.568;2023-01-29T00:24:01;21.50;;;11.35;;
5616;SDS011;2830;50.656;7.568;2023-01-29T00:26:28;24.23;;;12.68;;
5616;SDS011;2830;50.656;7.568;2023-01-29T00:28:55;23.40;;;12.63;;
5616;SDS011;2830;50.656;7.568;2023-01-29T00:31:23;25.05;;;12.13;;
5616;SDS011;2830;50.656;7.568;2023-01-29T00:33:51;22.92;;;13.32;;
5616;SDS011;2830;50.656;7.568;2023-01-29T00:36:19;30.00;;;14.60;;
5616;SDS011;2830;50.656;7.568;2023-01-29T00:38:47;41.42;;;24.90;;
5616;SDS011;2830;50.656;7.568;2023-01-29T00:41:20;30.42;;;16.17;;
5616;SDS011;2830;50.656;7.568;2023-01-29T00:44:06;24.23;;;13.75;;
5616;SDS011;2830;50.656;7.568;2023-01-29T00:46:52;28.55;;;13.20;;
5616;SDS011;2830;50.656;7.568;2023-01-29T00:49:19;26.55;;;12.95;;
5616;SDS011;2830;50.656;7.568;2023-01-29T00:51:46;25.15;;;13.10;;
5616;SDS011;2830;50.656;7.568;2023-01-29T00:54:34;23.55;;;13.77;;
5616;SDS011;2830;50.656;7.568;2023-01-29T00:57:01;23.52;;;13.60;;
5616;SDS011;2830;50.656;7.568;2023-01-29T00:59:28;22.50;;;12.63;;
5616;SDS011;2830;50.656;7.568;2023-01-29T01:01:55;27.92;;;16.38;;
5616;SDS011;2830;50.656;7.568;2023-01-29T01:04:42;33.63;;;16.52;;
5616;SDS011;2830;50.656;7.568;2023-01-29T01:07:09;30.25;;;15.20;;
5616;SDS011;2830;50.656;7.568;2023-01-29T01:09:35;27.97;;;14.90;;
5616;SDS011;2830;50.656;7.568;2023-01-29T01:12:21;26.75;;;13.70;;
5616;SDS011;2830;50.656;7.568;2023-01-29T01:14:49;29.63;;;14.70;;
5616;SDS011;2830;50.656;7.568;2023-01-29T01:17:16;25.70;;;14.82;;
5616;SDS011;2830;50.656;7.568;2023-01-29T01:19:43;27.80;;;12.90;;
5616;SDS011;2830;50.656;7.568;2023-01-29T01:22:10;26.45;;;13.63;;
5616;SDS011;2830;50.656;7.568;2023-01-29T01:24:37;24.90;;;13.93;;
5616;SDS011;2830;50.656;7.568;2023-01-29T01:27:04;21.33;;;12.57;;
5616;SDS011;2830;50.656;7.568;2023-01-29T01:29:32;23.42;;;11.88;;
5616;SDS011;2830;50.656;7.568;2023-01-29T01:31:59;22.05;;;11.40;;
5616;SDS011;2830;50.656;7.568;2023-01-29T01:34:26;25.45;;;11.75;;
5616;SDS011;2830;50.656;7.568;2023-01-29T01:36:54;24.40;;;12.38;;
5616;SDS011;2830;50.656;7.568;2023-01-29T01:39:21;20.75;;;10.55;;
5616;SDS011;2830;50.656;7.568;2023-01-29T01:41:48;22.05;;;11.32;;
5616;SDS011;2830;50.656;7.568;2023-01-29T01:47:01;21.58;;;11.63;;
5616;SDS011;2830;50.656;7.568;2023-01-29T01:49:28;20.48;;;12.30;;
5616;SDS011;2830;50.656;7.568;2023-01-29T01:51:56;23.35;;;11.95;;
5616;SDS011;2830;50.656;7.568;2023-01-29T01:54:25;23.35;;;12.70;;
5616;SDS011;2830;50.656;7.568;2023-01-29T01:56:55;20.80;;;12.02;;
5616;SDS011;2830;50.656;7.568;2023-01-29T01:59:29;21.30;;;11.23;;
5616;SDS011;2830;50.656;7.568;2023-01-29T02:01:58;22.02;;;13.13;;
5616;SDS011;2830;50.656;7.568;2023-01-29T02:04:45;24.00;;;12.20;;
5616;SDS011;2830;50.656;7.568;2023-01-29T02:07:30;27.48;;;11.75;;
5616;SDS011;2830;50.656;7.568;2023-01-29T02:10:16;22.88;;;12.77;;
5616;SDS011;2830;50.656;7.568;2023-01-29T02:12:44;23.73;;;13.18;;
5616;SDS011;2830;50.656;7.568;2023-01-29T02:15:11;21.73;;;11.40;;
5616;SDS011;2830;50.656;7.568;2023-01-29T02:17:38;21.75;;;11.70;;
5616;SDS011;2830;50.656;7.568;2023-01-29T02:20:11;21.10;;;12.02;;
5616;SDS011;2830;50.656;7.568;2023-01-29T02:22:56;21.73;;;11.73;;
5616;SDS011;2830;50.656;7.568;2023-01-29T02:28:18;20.02;;;11.13;;
5616;SDS011;2830;50.656;7.568;2023-01-29T02:30:50;25.30;;;12.35;;
5616;SDS011;2830;50.656;7.568;2023-01-29T02:36:10;23.08;;;11.80;;
5616;SDS011;2830;50.656;7.568;2023-01-29T02:38:44;17.25;;;9.88;;
5616;SDS011;2830;50.656;7.568;2023-01-29T02:41:23;21.58;;;11.98;;
5616;SDS011;2830;50.656;7.568;2023-01-29T02:44:04;21.30;;;11.68;;
5616;SDS011;2830;50.656;7.568;2023-01-29T02:46:41;23.52;;;11.30;;
5616;SDS011;2830;50.656;7.568;2023-01-29T02:49:16;22.55;;;10.80;;
5616;SDS011;2830;50.656;7.568;2023-01-29T02:54:23;21.83;;;11.10;;
5616;SDS011;2830;50.656;7.568;2023-01-29T02:56:56;20.88;;;10.52;;
5616;SDS011;2830;50.656;7.568;2023-01-29T02:59:28;23.60;;;11.85;;
5616;SDS011;2830;50.656;7.568;2023-01-29T03:01:59;19.27;;;10.13;;
5616;SDS011;2830;50.656;7.568;2023-01-29T03:04:30;20.02;;;11.15;;
5616;SDS011;2830;50.656;7.568;2023-01-29T03:07:03;19.70;;;10.73;;
5616;SDS011;2830;50.656;7.568;2023-01-29T03:12:01;20.63;;;11.60;;
5616;SDS011;2830;50.656;7.568;2023-01-29T03:14:46;19.45;;;11.38;;
5616;SDS011;2830;50.656;7.568;2023-01-29T03:17:36;20.83;;;11.20;;
5616;SDS011;2830;50.656;7.568;2023-01-29T03:20:05;17.02;;;9.73;;
5616;SDS011;2830;50.656;7.568;2023-01-29T03:22:35;21.33;;;11.20;;
5616;SDS011;2830;50.656;7.568;2023-01-29T03:25:03;22.50;;;11.57;;
5616;SDS011;2830;50.656;7.568;2023-01-29T03:27:51;20.10;;;10.98;;
5616;SDS011;2830;50.656;7.568;2023-01-29T03:30:39;22.08;;;10.55;;
5616;SDS011;2830;50.656;7.568;2023-01-29T03:33:26;20.35;;;10.60;;
5616;SDS011;2830;50.656;7.568;2023-01-29T03:35:58;20.35;;;9.95;;
5616;SDS011;2830;50.656;7.568;2023-01-29T03:38:27;20.88;;;11.32;;
5616;SDS011;2830;50.656;7.568;2023-01-29T03:43:35;19.88;;;10.77;;
5616;SDS011;2830;50.656;7.568;2023-01-29T03:46:14;20.67;;;11.35;;
5616;SDS011;2830;50.656;7.568;2023-01-29T03:48:47;19.20;;;9.82;;
5616;SDS011;2830;50.656;7.568;2023-01-29T03:53:57;18.15;;;9.95;;
5616;SDS011;2830;50.656;7.568;2023-01-29T03:56:35;20.50;;;11.40;;
5616;SDS011;2830;50.656;7.568;2023-01-29T03:59:17;18.50;;;10.18;;
5616;SDS011;2830;50.656;7.568;2023-01-29T04:01:53;20.17;;;10.40;;
5616;SDS011;2830;50.656;7.568;2023-01-29T04:04:42;20.50;;;10.48;;
5616;SDS011;2830;50.656;7.568;2023-01-29T04:07:12;18.60;;;10.05;;
5616;SDS011;2830;50.656;7.568;2023-01-29T04:09:44;20.27;;;10.60;;
5616;SDS011;2830;50.656;7.568;2023-01-29T04:12:12;21.92;;;12.07;;
5616;SDS011;2830;50.656;7.568;2023-01-29T04:14:40;20.70;;;11.00;;
5616;SDS011;2830;50.656;7.568;2023-01-29T04:17:10;20.40;;;11.90;;
5616;SDS011;2830;50.656;7.568;2023-01-29T04:19:38;21.02;;;10.77;;
5616;SDS011;2830;50.656;7.568;2023-01-29T04:25:09;22.77;;;11.13;;
5616;SDS011;2830;50.656;7.568;2023-01-29T04:27:57;18.80;;;10.00;;
5616;SDS011;2830;50.656;7.568;2023-01-29T04:33:10;20.05;;;10.57;;
5616;SDS011;2830;50.656;7.568;2023-01-29T04:38:18;20.58;;;11.20;;
5616;SDS011;2830;50.656;7.568;2023-01-29T04:40:55;20.80;;;11.10;;
5616;SDS011;2830;50.656;7.568;2023-01-29T04:43:29;19.85;;;10.90;;
5616;SDS011;2830;50.656;7.568;2023-01-29T04:46:09;20.65;;;10.98;;
5616;SDS011;2830;50.656;7.568;2023-01-29T04:48:43;19.70;;;11.00;;
5616;SDS011;2830;50.656;7.568;2023-01-29T04:51:16;19.08;;;10.50;;
5616;SDS011;2830;50.656;7.568;2023-01-29T04:53:48;18.23;;;9.80;;
5616;SDS011;2830;50.656;7.568;2023-01-29T04:56:33;19.52;;;11.20;;
5616;SDS011;2830;50.656;7.568;2023-01-29T04:59:06;18.67;;;10.63;;
5616;SDS011;2830;50.656;7.568;2023-01-29T05:01:34;19.45;;;10.70;;
5616;SDS011;2830;50.656;7.568;2023-01-29T05:04:02;18.25;;;10.80;;
5616;SDS011;2830;50.656;7.568;2023-01-29T05:06:30;18.58;;;10.60;;
5616;SDS011;2830;50.656;7.568;2023-01-29T05:08:58;18.23;;;10.25;;
5616;SDS011;2830;50.656;7.568;2023-01-29T05:11:26;19.45;;;10.32;;
5616;SDS011;2830;50.656;7.568;2023-01-29T05:13:55;20.27;;;11.13;;
5616;SDS011;2830;50.656;7.568;2023-01-29T05:16:24;17.30;;;9.35;;
5616;SDS011;2830;50.656;7.568;2023-01-29T05:18:52;21.35;;;11.52;;
5616;SDS011;2830;50.656;7.568;2023-01-29T05:21:19;20.42;;;11.43;;
5616;SDS011;2830;50.656;7.568;2023-01-29T05:26:34;18.50;;;10.07;;
5616;SDS011;2830;50.656;7.568;2023-01-29T05:29:20;20.98;;;10.70;;
5616;SDS011;2830;50.656;7.568;2023-01-29T05:31:47;19.00;;;9.02;;
5616;SDS011;2830;50.656;7.568;2023-01-29T05:34:14;18.55;;;9.80;;
5616;SDS011;2830;50.656;7.568;2023-01-29T05:36:42;20.58;;;9.95;;
5616;SDS011;2830;50.656;7.568;2023-01-29T05:39:09;18.10;;;10.10;;
5616;SDS011;2830;50.656;7.568;2023-01-29T05:41:36;19.83;;;10.93;;
5616;SDS011;2830;50.656;7.568;2023-01-29T05:44:03;20.05;;;11.00;;
5616;SDS011;2830;50.656;7.568;2023-01-29T05:46:30;19.65;;;10.85;;
5616;SDS011;2830;50.656;7.568;2023-01-29T05:48:57;21.75;;;11.82;;
5616;SDS011;2830;50.656;7.568;2023-01-29T05:51:24;21.90;;;10.68;;
5616;SDS011;2830;50.656;7.568;2023-01-29T05:53:52;19.65;;;9.63;;
5616;SDS011;2830;50.656;7.568;2023-01-29T05:56:19;22.10;;;11.02;;
5616;SDS011;2830;50.656;7.568;2023-01-29T05:58:46;23.65;;;13.30;;
5616;SDS011;2830;50.656;7.568;2023-01-29T06:01:15;17.60;;;9.55;;
5616;SDS011;2830;50.656;7.568;2023-01-29T06:03:43;19.27;;;10.60;;
5616;SDS011;2830;50.656;7.568;2023-01-29T06:06:10;20.23;;;10.40;;
5616;SDS011;2830;50.656;7.568;2023-01-29T06:08:37;18.60;;;9.77;;
5616;SDS011;2830;50.656;7.568;2023-01-29T06:11:06;21.17;;;11.73;;
5616;SDS011;2830;50.656;7.568;2023-01-29T06:13:33;19.27;;;10.55;;
5616;SDS011;2830;50.656;7.568;2023-01-29T06:16:03;20.95;;;11.20;;
5616;SDS011;2830;50.656;7.568;2023-01-29T06:18:30;20.67;;;11.13;;
5616;SDS011;2830;50.656;7.568;2023-01-29T06:21:01;21.27;;;11.60;;
5616;SDS011;2830;50.656;7.568;2023-01-29T06:23:29;25.00;;;12.88;;
5616;SDS011;2830;50.656;7.568;2023-01-29T06:25:59;27.88;;;12.88;;
5616;SDS011;2830;50.656;7.568;2023-01-29T06:28:27;25.15;;;13.00;;
5616;SDS011;2830;50.656;7.568;2023-01-29T06:30:57;26.25;;;14.10;;
5616;SDS011;2830;50.656;7.568;2023-01-29T06:33:45;25.25;;;12.00;;
5616;SDS011;2830;50.656;7.568;2023-01-29T06:36:12;25.63;;;13.50;;
5616;SDS011;2830;50.656;7.568;2023-01-29T06:38:39;30.55;;;14.02;;
5616;SDS011;2830;50.656;7.568;2023-01-29T06:41:07;26.13;;;13.07;;
5616;SDS011;2830;50.656;7.568;2023-01-29T06:43:34;22.15;;;10.50;;
5616;SDS011;2830;50.656;7.568;2023-01-29T06:46:01;25.83;;;11.95;;
5616;SDS011;2830;50.656;7.568;2023-01-29T06:48:29;22.60;;;12.82;;
5616;SDS011;2830;50.656;7.568;2023-01-29T06:51:00;19.52;;;10.18;;
5616;SDS011;2830;50.656;7.568;2023-01-29T06:53:27;20.52;;;11.85;;
5616;SDS011;2830;50.656;7.568;2023-01-29T06:55:54;26.67;;;14.70;;
5616;SDS011;2830;50.656;7.568;2023-01-29T06:58:21;27.02;;;13.75;;
5616;SDS011;2830;50.656;7.568;2023-01-29T07:00:48;22.38;;;11.77;;
5616;SDS011;2830;50.656;7.568;2023-01-29T07:03:15;24.63;;;13.20;;
5616;SDS011;2830;50.656;7.568;2023-01-29T07:05:42;24.48;;;12.75;;
5616;SDS011;2830;50.656;7.568;2023-01-29T07:08:15;20.02;;;11.05;;
5616;SDS011;2830;50.656;7.568;2023-01-29T07:10:42;22.17;;;12.63;;
5616;SDS011;2830;50.656;7.568;2023-01-29T07:13:09;21.58;;;11.60;;
5616;SDS011;2830;50.656;7.568;2023-01-29T07:15:36;23.85;;;12.40;;
5616;SDS011;2830;50.656;7.568;2023-01-29T07:18:03;22.58;;;11.80;;
5616;SDS011;2830;50.656;7.568;2023-01-29T07:20:40;21.15;;;10.95;;
5616;SDS011;2830;50.656;7.568;2023-01-29T07:23:08;22.85;;;12.52;;
5616;SDS011;2830;50.656;7.568;2023-01-29T07:25:36;24.80;;;13.10;;
5616;SDS011;2830;50.656;7.568;2023-01-29T07:28:03;21.92;;;12.35;;
5616;SDS011;2830;50.656;7.568;2023-01-29T07:30:31;21.90;;;11.77;;
5616;SDS011;2830;50.656;7.568;2023-01-29T07:33:05;23.83;;;12.13;;
5616;SDS011;2830;50.656;7.568;2023-01-29T07:35:36;22.15;;;12.45;;
5616;SDS011;2830;50.656;7.568;2023-01-29T07:38:04;23.80;;;12.80;;
5616;SDS011;2830;50.656;7.568;2023-01-29T07:40:31;24.00;;;13.25;;
5616;SDS011;2830;50.656;7.568;2023-01-29T07:42:59;29.85;;;15.15;;
5616;SDS011;2830;50.656;7.568;2023-01-29T07:45:27;23.30;;;12.23;;
5616;SDS011;2830;50.656;7.568;2023-01-29T07:47:55;21.90;;;12.40;;
5616;SDS011;2830;50.656;7.568;2023-01-29T07:50:23;20.35;;;12.05;;
5616;SDS011;2830;50.656;7.568;2023-01-29T07:52:50;26.48;;;14.27;;
5616;SDS011;2830;50.656;7.568;2023-01-29T07:55:17;21.75;;;12.18;;
5616;SDS011;2830;50.656;7.568;2023-01-29T07:57:44;18.92;;;10.98;;
5616;SDS011;2830;50.656;7.568;2023-01-29T08:00:12;22.98;;;12.80;;
5616;SDS011;2830;50.656;7.568;2023-01-29T08:02:40;19.65;;;11.38;;
5616;SDS011;2830;50.656;7.568;2023-01-29T08:05:07;24.08;;;11.02;;
5616;SDS011;2830;50.656;7.568;2023-01-29T08:07:34;22.98;;;12.82;;
5616;SDS011;2830;50.656;7.568;2023-01-29T08:10:02;29.15;;;15.18;;
5616;SDS011;2830;50.656;7.568;2023-01-29T08:12:29;26.35;;;14.65;;
5616;SDS011;2830;50.656;7.568;2023-01-29T08:14:56;29.48;;;16.45;;
5616;SDS011;2830;50.656;7.568;2023-01-29T08:17:23;34.38;;;16.17;;
5616;SDS011;2830;50.656;7.568;2023-01-29T08:19:50;29.33;;;17.30;;
5616;SDS011;2830;50.656;7.568;2023-01-29T08:22:17;26.08;;;16.30;;
5616;SDS011;2830;50.656;7.568;2023-01-29T08:24:44;24.13;;;14.98;;
5616;SDS011;2830;50.656;7.568;2023-01-29T08:27:25;27.15;;;15.10;;
5616;SDS011;2830;50.656;7.568;2023-01-29T08:29:52;27.17;;;15.32;;
5616;SDS011;2830;50.656;7.568;2023-01-29T08:32:19;25.35;;;13.77;;
5616;SDS011;2830;50.656;7.568;2023-01-29T08:34:46;26.52;;;15.02;;
5616;SDS011;2830;50.656;7.568;2023-01-29T08:37:13;24.67;;;13.80;;
5616;SDS011;2830;50.656;7.568;2023-01-29T08:39:40;28.15;;;14.98;;
5616;SDS011;2830;50.656;7.568;2023-01-29T08:42:12;28.85;;;14.95;;
5616;SDS011;2830;50.656;7.568;2023-01-29T08:44:39;30.77;;;16.67;;
5616;SDS011;2830;50.656;7.568;2023-01-29T08:47:06;27.33;;;15.68;;
5616;SDS011;2830;50.656;7.568;2023-01-29T08:49:33;24.92;;;14.30;;
5616;SDS011;2830;50.656;7.568;2023-01-29T08:52:00;29.30;;;17.48;;
5616;SDS011;2830;50.656;7.568;2023-01-29T08:54:29;29.50;;;17.02;;
5616;SDS011;2830;50.656;7.568;2023-01-29T08:56:56;24.25;;;14.90;;
5616;SDS011;2830;50.656;7.568;2023-01-29T08:59:23;25.13;;;14.85;;
5616;SDS011;2830;50.656;7.568;2023-01-29T09:01:50;25.48;;;14.70;;
5616;SDS011;2830;50.656;7.568;2023-01-29T09:04:17;29.13;;;16.42;;
5616;SDS011;2830;50.656;7.568;2023-01-29T09:06:44;28.08;;;15.70;;
5616;SDS011;2830;50.656;7.568;2023-01-29T09:09:11;25.08;;;15.05;;
5616;SDS011;2830;50.656;7.568;2023-01-29T09:11:39;27.35;;;15.70;;
5616;SDS011;2830;50.656;7.568;2023-01-29T09:14:06;25.83;;;15.15;;
5616;SDS011;2830;50.656;7.568;2023-01-29T09:16:34;28.33;;;16.13;;
5616;SDS011;2830;50.656;7.568;2023-01-29T09:19:02;27.73;;;14.70;;
5616;SDS011;2830;50.656;7.568;2023-01-29T09:21:29;27.00;;;14.48;;
5616;SDS011;2830;50.656;7.568;2023-01-29T09:23:56;26.67;;;15.10;;
5616;SDS011;2830;50.656;7.568;2023-01-29T09:26:23;27.13;;;15.07;;
5616;SDS011;2830;50.656;7.568;2023-01-29T09:28:51;25.42;;;14.27;;
5616;SDS011;2830;50.656;7.568;2023-01-29T09:31:18;25.58;;;14.13;;
5616;SDS011;2830;50.656;7.568;2023-01-29T09:33:45;28.88;;;15.93;;
5616;SDS011;2830;50.656;7.568;2023-01-29T09:36:12;29.35;;;15.90;;
5616;SDS011;2830;50.656;7.568;2023-01-29T09:38:39;33.80;;;15.63;;
5616;SDS011;2830;50.656;7.568;2023-01-29T09:43:54;24.33;;;13.63;;
5616;SDS011;2830;50.656;7.568;2023-01-29T09:49:14;30.08;;;15.68;;
5616;SDS011;2830;50.656;7.568;2023-01-29T09:51:47;28.15;;;15.85;;
5616;SDS011;2830;50.656;7.568;2023-01-29T09:54:17;26.65;;;14.95;;
5616;SDS011;2830;50.656;7.568;2023-01-29T09:56:47;27.15;;;15.63;;
5616;SDS011;2830;50.656;7.568;2023-01-29T09:59:16;27.73;;;14.50;;
5616;SDS011;2830;50.656;7.568;2023-01-29T10:06:44;33.17;;;15.70;;
5616;SDS011;2830;50.656;7.568;2023-01-29T10:22:44;22.42;;;12.38;;
5616;SDS011;2830;50.656;7.568;2023-01-29T10:25:16;18.75;;;10.90;;
5616;SDS011;2830;50.656;7.568;2023-01-29T10:27:57;25.42;;;11.25;;
5616;SDS011;2830;50.656;7.568;2023-01-29T10:30:33;20.00;;;9.93;;
5616;SDS011;2830;50.656;7.568;2023-01-29T10:33:04;21.77;;;11.70;;
5616;SDS011;2830;50.656;7.568;2023-01-29T10:35:33;18.83;;;10.30;;
5616;SDS011;2830;50.656;7.568;2023-01-29T10:38:14;18.80;;;9.68;;
5616;SDS011;2830;50.656;7.568;2023-01-29T10:40:44;20.38;;;9.60;;
5616;SDS011;2830;50.656;7.568;2023-01-29T10:43:16;20.92;;;10.55;;
5616;SDS011;2830;50.656;7.568;2023-01-29T10:46:02;19.30;;;10.02;;
5616;SDS011;2830;50.656;7.568;2023-01-29T10:54:02;19.20;;;9.65;;
5616;SDS011;2830;50.656;7.568;2023-01-29T11:01:55;20.73;;;9.98;;
5616;SDS011;2830;50.656;7.568;2023-01-29T11:04:23;22.17;;;10.52;;
5616;SDS011;2830;50.656;7.568;2023-01-29T11:06:51;22.67;;;10.63;;
5616;SDS011;2830;50.656;7.568;2023-01-29T11:11:53;21.00;;;11.13;;
5616;SDS011;2830;50.656;7.568;2023-01-29T11:16:55;21.80;;;11.80;;
5616;SDS011;2830;50.656;7.568;2023-01-29T11:19:36;21.33;;;11.63;;
5616;SDS011;2830;50.656;7.568;2023-01-29T11:22:03;20.90;;;10.70;;
5616;SDS011;2830;50.656;7.568;2023-01-29T11:24:30;24.13;;;12.70;;
5616;SDS011;2830;50.656;7.568;2023-01-29T11:26:58;21.13;;;10.43;;
5616;SDS011;2830;50.656;7.568;2023-01-29T11:31:52;22.37;;;10.20;;
5616;SDS011;2830;50.656;7.568;2023-01-29T11:34:20;23.90;;;12.30;;
5616;SDS011;2830;50.656;7.568;2023-01-29T11:36:58;29.47;;;11.47;;
5616;SDS011;2830;50.656;7.568;2023-01-29T11:39:26;22.47;;;11.90;;
5616;SDS011;2830;50.656;7.568;2023-01-29T11:41:57;26.67;;;12.60;;
5616;SDS011;2830;50.656;7.568;2023-01-29T11:44:26;21.73;;;11.20;;
5616;SDS011;2830;50.656;7.568;2023-01-29T11:46:55;23.40;;;11.90;;
5616;SDS011;2830;50.656;7.568;2023-01-29T11:49:32;24.77;;;12.80;;
5616;SDS011;2830;50.656;7.568;2023-01-29T11:52:01;25.10;;;13.10;;
5616;SDS011;2830;50.656;7.568;2023-01-29T11:54:30;23.03;;;11.43;;
5616;SDS011;2830;50.656;7.568;2023-01-29T11:56:58;24.67;;;12.97;;
5616;SDS011;2830;50.656;7.568;2023-01-29T11:59:34;29.20;;;12.20;;
5616;SDS011;2830;50.656;7.568;2023-01-29T12:02:19;23.37;;;12.07;;
5616;SDS011;2830;50.656;7.568;2023-01-29T12:04:48;31.73;;;15.50;;
5616;SDS011;2830;50.656;7.568;2023-01-29T12:07:16;23.80;;;12.07;;
5616;SDS011;2830;50.656;7.568;2023-01-29T12:10:01;28.20;;;14.13;;
5616;SDS011;2830;50.656;7.568;2023-01-29T12:15:20;25.50;;;12.97;;
5616;SDS011;2830;50.656;7.568;2023-01-29T12:20:41;24.57;;;12.40;;
5616;SDS011;2830;50.656;7.568;2023-01-29T12:26:09;28.30;;;14.50;;
5616;SDS011;2830;50.656;7.568;2023-01-29T12:31:33;28.00;;;13.03;;
5616;SDS011;2830;50.656;7.568;2023-01-29T12:34:05;25.73;;;12.37;;
5616;SDS011;2830;50.656;7.568;2023-01-29T12:36:41;29.00;;;13.27;;
5616;SDS011;2830;50.656;7.568;2023-01-29T12:39:10;33.10;;;15.30;;
5616;SDS011;2830;50.656;7.568;2023-01-29T12:41:40;32.70;;;16.33;;
5616;SDS011;2830;50.656;7.568;2023-01-29T12:44:18;28.23;;;13.30;;
5616;SDS011;2830;50.656;7.568;2023-01-29T12:46:48;23.57;;;11.50;;
5616;SDS011;2830;50.656;7.568;2023-01-29T12:49:17;24.83;;;11.93;;
5616;SDS011;2830;50.656;7.568;2023-01-29T12:51:47;25.03;;;10.40;;
5616;SDS011;2830;50.656;7.568;2023-01-29T12:54:17;27.10;;;12.87;;
5616;SDS011;2830;50.656;7.568;2023-01-29T12:56:46;30.03;;;15.13;;
5616;SDS011;2830;50.656;7.568;2023-01-29T13:01:47;31.77;;;13.37;;
5616;SDS011;2830;50.656;7.568;2023-01-29T13:04:59;27.70;;;14.40;;
5616;SDS011;2830;50.656;7.568;2023-01-29T13:07:11;27.87;;;13.30;;
5616;SDS011;2830;50.656;7.568;2023-01-29T13:09:40;26.40;;;12.87;;
5616;SDS011;2830;50.656;7.568;2023-01-29T13:12:11;24.67;;;12.90;;
5616;SDS011;2830;50.656;7.568;2023-01-29T13:14:55;23.47;;;12.13;;
5616;SDS011;2830;50.656;7.568;2023-01-29T13:17:36;28.13;;;14.07;;
5616;SDS011;2830;50.656;7.568;2023-01-29T13:20:10;27.88;;;14.20;;
5616;SDS011;2830;50.656;7.568;2023-01-29T13:22:38;25.25;;;13.05;;
5616;SDS011;2830;50.656;7.568;2023-01-29T13:25:11;24.92;;;13.35;;
5616;SDS011;2830;50.656;7.568;2023-01-29T13:27:38;22.50;;;12.20;;
5616;SDS011;2830;50.656;7.568;2023-01-29T13:30:19;23.88;;;12.77;;
5616;SDS011;2830;50.656;7.568;2023-01-29T13:32:50;26.20;;;12.98;;
5616;SDS011;2830;50.656;7.568;2023-01-29T13:35:17;26.10;;;13.50;;
5616;SDS011;2830;50.656;7.568;2023-01-29T13:37:50;28.40;;;13.65;;
5616;SDS011;2830;50.656;7.568;2023-01-29T13:40:28;27.77;;;13.52;;
5616;SDS011;2830;50.656;7.568;2023-01-29T13:42:56;26.30;;;13.10;;
5616;SDS011;2830;50.656;7.568;2023-01-29T13:45:35;26.02;;;13.20;;
5616;SDS011;2830;50.656;7.568;2023-01-29T13:48:25;24.70;;;12.40;;
5616;SDS011;2830;50.656;7.568;2023-01-29T13:50:54;24.00;;;12.82;;
5616;SDS011;2830;50.656;7.568;2023-01-29T13:53:26;24.48;;;12.38;;
5616;SDS011;2830;50.656;7.568;2023-01-29T13:55:53;23.80;;;11.95;;
5616;SDS011;2830;50.656;7.568;2023-01-29T13:59:04;23.92;;;12.82;;
5616;SDS011;2830;50.656;7.568;2023-01-29T14:01:11;21.88;;;11.73;;
5616;SDS011;2830;50.656;7.568;2023-01-29T14:03:44;25.73;;;12.70;;
5616;SDS011;2830;50.656;7.568;2023-01-29T14:06:37;22.65;;;10.57;;
5616;SDS011;2830;50.656;7.568;2023-01-29T14:09:28;24.55;;;13.50;;
5616;SDS011;2830;50.656;7.568;2023-01-29T14:11:52;26.83;;;13.45;;
5616;SDS011;2830;50.656;7.568;2023-01-29T14:17:06;26.15;;;12.32;;
5616;SDS011;2830;50.656;7.568;2023-01-29T14:19:33;25.52;;;12.93;;
5616;SDS011;2830;50.656;7.568;2023-01-29T14:22:00;24.55;;;11.32;;
5616;SDS011;2830;50.656;7.568;2023-01-29T14:24:28;20.52;;;11.15;;
5616;SDS011;2830;50.656;7.568;2023-01-29T14:26:56;23.92;;;11.43;;
5616;SDS011;2830;50.656;7.568;2023-01-29T14:29:30;38.40;;;12.77;;
5616;SDS011;2830;50.656;7.568;2023-01-29T14:34:34;25.25;;;12.50;;
5616;SDS011;2830;50.656;7.568;2023-01-29T14:37:14;27.58;;;12.02;;
5616;SDS011;2830;50.656;7.568;2023-01-29T14:39:46;24.25;;;11.30;;
5616;SDS011;2830;50.656;7.568;2023-01-29T14:42:21;26.13;;;12.40;;
5616;SDS011;2830;50.656;7.568;2023-01-29T14:52:50;30.35;;;13.13;;
5616;SDS011;2830;50.656;7.568;2023-01-29T14:55:36;29.30;;;13.98;;
5616;SDS011;2830;50.656;7.568;2023-01-29T14:58:03;24.80;;;13.13;;
5616;SDS011;2830;50.656;7.568;2023-01-29T15:00:35;28.02;;;14.00;;
5616;SDS011;2830;50.656;7.568;2023-01-29T15:03:04;28.08;;;14.85;;
5616;SDS011;2830;50.656;7.568;2023-01-29T15:05:37;27.45;;;12.82;;
5616;SDS011;2830;50.656;7.568;2023-01-29T15:08:06;32.45;;;16.85;;
5616;SDS011;2830;50.656;7.568;2023-01-29T15:13:54;27.55;;;15.80;;
5616;SDS011;2830;50.656;7.568;2023-01-29T15:16:23;27.80;;;15.07;;
5616;SDS011;2830;50.656;7.568;2023-01-29T15:18:51;28.48;;;16.42;;
5616;SDS011;2830;50.656;7.568;2023-01-29T15:21:20;28.95;;;15.27;;
5616;SDS011;2830;50.656;7.568;2023-01-29T15:23:47;26.95;;;14.30;;
5616;SDS011;2830;50.656;7.568;2023-01-29T15:26:29;25.50;;;13.45;;
5616;SDS011;2830;50.656;7.568;2023-01-29T15:29:00;26.55;;;13.95;;
5616;SDS011;2830;50.656;7.568;2023-01-29T15:31:30;27.02;;;15.35;;
5616;SDS011;2830;50.656;7.568;2023-01-29T15:33:57;28.60;;;16.42;;
5616;SDS011;2830;50.656;7.568;2023-01-29T15:36:28;26.73;;;14.52;;
5616;SDS011;2830;50.656;7.568;2023-01-29T15:41:36;44.22;;;19.83;;
5616;SDS011;2830;50.656;7.568;2023-01-29T15:44:11;44.25;;;20.38;;
5616;SDS011;2830;50.656;7.568;2023-01-29T15:46:39;30.17;;;16.65;;
5616;SDS011;2830;50.656;7.568;2023-01-29T15:49:07;31.50;;;16.98;;
5616;SDS011;2830;50.656;7.568;2023-01-29T15:51:36;30.00;;;16.48;;
5616;SDS011;2830;50.656;7.568;2023-01-29T15:54:12;33.88;;;17.90;;
5616;SDS011;2830;50.656;7.568;2023-01-29T15:56:45;33.53;;;18.20;;
5616;SDS011;2830;50.656;7.568;2023-01-29T15:59:18;33.15;;;18.63;;
5616;SDS011;2830;50.656;7.568;2023-01-29T16:01:45;41.13;;;21.75;;
5616;SDS011;2830;50.656;7.568;2023-01-29T16:04:14;35.03;;;19.40;;
5616;SDS011;2830;50.656;7.568;2023-01-29T16:06:45;38.10;;;19.70;;
5616;SDS011;2830;50.656;7.568;2023-01-29T16:09:14;42.10;;;23.65;;
5616;SDS011;2830;50.656;7.568;2023-01-29T16:11:43;38.90;;;21.85;;
5616;SDS011;2830;50.656;7.568;2023-01-29T16:14:12;41.78;;;26.33;;
5616;SDS011;2830;50.656;7.568;2023-01-29T16:16:40;32.40;;;18.77;;
5616;SDS011;2830;50.656;7.568;2023-01-29T16:19:20;30.08;;;17.40;;
5616;SDS011;2830;50.656;7.568;2023-01-29T16:21:50;33.53;;;17.30;;
5616;SDS011;2830;50.656;7.568;2023-01-29T16:24:19;35.08;;;18.95;;
5616;SDS011;2830;50.656;7.568;2023-01-29T16:26:48;33.17;;;20.08;;
5616;SDS011;2830;50.656;7.568;2023-01-29T16:29:17;34.38;;;18.02;;
5616;SDS011;2830;50.656;7.568;2023-01-29T16:31:45;32.88;;;17.88;;
5616;SDS011;2830;50.656;7.568;2023-01-29T16:34:14;29.63;;;16.95;;
5616;SDS011;2830;50.656;7.568;2023-01-29T16:36:44;32.53;;;18.98;;
5616;SDS011;2830;50.656;7.568;2023-01-29T16:39:15;37.20;;;23.20;;
5616;SDS011;2830;50.656;7.568;2023-01-29T16:41:43;33.58;;;20.83;;
5616;SDS011;2830;50.656;7.568;2023-01-29T16:46:47;31.60;;;17.52;;
5616;SDS011;2830;50.656;7.568;2023-01-29T16:51:53;33.95;;;18.23;;
5616;SDS011;2830;50.656;7.568;2023-01-29T16:54:24;28.63;;;15.35;;
5616;SDS011;2830;50.656;7.568;2023-01-29T16:56:57;36.53;;;17.35;;
5616;SDS011;2830;50.656;7.568;2023-01-29T16:59:30;33.08;;;17.70;;
5616;SDS011;2830;50.656;7.568;2023-01-29T17:01:58;33.58;;;18.55;;